Time;durP1;ratioP1;P1;durP2;ratioP2;P2;SDS_P1;SDS_P2;PMS_P1;PMS_P2;Temp;Humidity;BMP_temperature;BMP_pressure;BME280_temperature;BME280_humidity;BME280_pressure;Samples;Min_cycle;Max_cycle;Signal;HPM_P1;HPM_P2
2023/07/18 00:00:25;;;;;;;5.80;2.42;;;;;;;18.38;62.69;100449.25;5064107;28;20033;-78
2023/07/18 00:02:50;;;;;;;5.82;1.90;;;;;;;18.50;62.43;100433.03;5064463;28;20060;-78
2023/07/18 00:05:15;;;;;;;3.42;2.08;;;;;;;18.66;62.25;100433.56;5064474;28;20131;-78
2023/07/18 00:07:42;;;;;;;8.07;2.90;;;;;;;18.70;61.71;100442.06;5064924;28;20029;-78
2023/07/18 00:10:09;;;;;;;6.80;2.42;;;;;;;18.73;61.88;100427.63;5064188;28;20253;-77
2023/07/18 00:12:35;;;;;;;3.47;1.63;;;;;;;18.57;62.59;100434.56;5064739;28;20074;-78
2023/07/18 00:15:03;;;;;;;4.18;1.73;;;;;;;18.49;62.94;100436.09;5064732;28;20123;-78
2023/07/18 00:17:31;;;;;;;4.95;2.25;;;;;;;18.35;63.33;100433.25;5064500;28;20036;-77
2023/07/18 00:19:56;;;;;;;9.55;2.10;;;;;;;18.18;63.90;100437.41;5064003;28;20505;-78
2023/07/18 00:22:22;;;;;;;8.95;3.30;;;;;;;18.31;63.42;100433.88;5064640;28;20036;-78
2023/07/18 00:24:47;;;;;;;5.60;1.88;;;;;;;18.19;63.72;100447.31;5064646;28;20121;-77
2023/07/18 00:27:16;;;;;;;4.67;2.53;;;;;;;18.05;64.27;100442.53;5063909;28;20119;-77
2023/07/18 00:29:42;;;;;;;4.97;2.00;;;;;;;17.94;64.86;100441.06;5063718;28;20818;-78
2023/07/18 00:32:07;;;;;;;7.72;2.60;;;;;;;18.01;64.56;100443.44;5064098;28;20060;-78
2023/07/18 00:34:32;;;;;;;8.23;2.15;;;;;;;17.96;64.63;100445.13;5063743;28;20567;-78
2023/07/18 00:36:58;;;;;;;21.03;3.00;;;;;;;18.04;64.20;100443.63;5064384;28;20402;-78
2023/07/18 00:39:23;;;;;;;8.48;2.97;;;;;;;18.08;63.43;100441.13;5063642;28;20290;-78
2023/07/18 00:41:49;;;;;;;5.28;2.08;;;;;;;18.04;63.69;100435.38;5063686;28;20040;-71
2023/07/18 00:44:14;;;;;;;5.00;2.03;;;;;;;18.11;63.52;100428.66;5063325;28;20876;-71
2023/07/18 00:46:40;;;;;;;6.15;2.38;;;;;;;18.20;63.10;100430.47;5063685;28;20036;-74
2023/07/18 00:49:05;;;;;;;8.13;2.53;;;;;;;18.18;63.31;100426.38;5063112;28;20111;-71
2023/07/18 00:51:30;;;;;;;6.72;1.60;;;;;;;18.34;62.54;100429.72;5063612;28;20040;-71
2023/07/18 00:53:56;;;;;;;8.25;2.45;;;;;;;18.31;62.55;100430.28;5063735;28;20054;-71
2023/07/18 00:56:23;;;;;;;6.43;2.20;;;;;;;18.29;62.11;100430.59;5063742;28;20036;-71
2023/07/18 00:58:48;;;;;;;5.72;1.92;;;;;;;18.28;62.33;100428.16;5063240;28;20197;-71
2023/07/18 01:01:14;;;;;;;4.30;1.70;;;;;;;18.24;62.65;100427.94;5062923;28;20032;-71
2023/07/18 01:03:39;;;;;;;6.03;3.05;;;;;;;18.17;62.66;100435.75;5063357;28;20470;-70
2023/07/18 01:06:09;;;;;;;6.38;2.50;;;;;;;18.21;62.57;100431.28;5062760;28;20033;-70
2023/07/18 01:08:35;;;;;;;4.57;1.88;;;;;;;18.15;62.68;100435.22;5062914;28;20028;-72
2023/07/18 01:11:01;;;;;;;6.80;2.28;;;;;;;18.25;62.69;100426.81;5063094;28;20140;-70
2023/07/18 01:13:26;;;;;;;5.93;2.58;;;;;;;18.12;62.94;100422.84;5062988;28;20119;-71
2023/07/18 01:15:52;;;;;;;6.88;2.50;;;;;;;18.15;62.74;100424.19;5063232;28;20083;-71
2023/07/18 01:18:17;;;;;;;8.13;2.80;;;;;;;18.31;61.77;100424.78;5062667;28;20043;-71
2023/07/18 01:20:45;;;;;;;6.18;2.45;;;;;;;18.23;62.53;100420.75;5062640;28;20044;-71
2023/07/18 01:23:11;;;;;;;5.35;2.40;;;;;;;18.40;61.95;100424.91;5062555;28;20081;-71
2023/07/18 01:25:37;;;;;;;5.03;2.40;;;;;;;18.33;62.59;100413.47;5062817;28;20036;-70
2023/07/18 01:28:03;;;;;;;7.43;2.40;;;;;;;18.36;62.29;100413.66;5063298;28;20036;-71
2023/07/18 01:30:29;;;;;;;5.03;2.33;;;;;;;18.35;62.29;100413.94;5062301;28;20102;-70
2023/07/18 01:32:56;;;;;;;4.13;1.77;;;;;;;18.34;62.17;100412.31;5063109;28;20074;-71
2023/07/18 01:35:23;;;;;;;5.97;2.38;;;;;;;18.30;62.23;100415.69;5063002;28;20032;-71
2023/07/18 01:37:49;;;;;;;10.15;3.83;;;;;;;18.30;62.23;100407.41;5062590;28;20031;-71
2023/07/18 01:40:19;;;;;;;6.65;2.78;;;;;;;18.29;62.03;100403.00;5061392;28;20066;-72
2023/07/18 01:42:44;;;;;;;7.60;2.83;;;;;;;18.24;62.33;100405.03;5062504;28;20048;-72
2023/07/18 01:45:10;;;;;;;6.20;2.73;;;;;;;18.07;63.11;100407.19;5062568;28;20498;-71
2023/07/18 01:47:40;;;;;;;14.68;3.25;;;;;;;18.02;62.70;100412.78;5062412;28;20266;-71
2023/07/18 01:50:07;;;;;;;7.30;2.67;;;;;;;18.03;62.78;100411.66;5061650;28;20716;-72
2023/07/18 01:52:33;;;;;;;11.80;3.40;;;;;;;18.08;62.72;100414.34;5062838;28;20064;-72
2023/07/18 01:55:00;;;;;;;5.47;2.88;;;;;;;18.15;62.58;100404.84;5061811;28;20344;-71
2023/07/18 01:57:28;;;;;;;9.20;2.25;;;;;;;18.04;62.56;100406.97;5062530;28;20098;-71
2023/07/18 01:59:54;;;;;;;7.32;3.17;;;;;;;17.87;63.24;100413.00;5061418;28;20028;-70
2023/07/18 02:02:19;;;;;;;4.72;2.15;;;;;;;18.00;62.48;100412.25;5062871;28;20386;-77
2023/07/18 02:04:46;;;;;;;4.95;2.10;;;;;;;17.98;62.73;100408.97;5062747;28;20032;-79
2023/07/18 02:07:11;;;;;;;5.25;1.80;;;;;;;18.06;62.44;100400.03;5062669;28;20028;-78
2023/07/18 02:09:37;;;;;;;10.82;3.13;;;;;;;17.83;62.49;100397.09;5061688;28;20037;-78
2023/07/18 02:12:03;;;;;;;6.05;1.85;;;;;;;17.90;62.77;100396.69;5062199;28;20044;-78
2023/07/18 02:14:28;;;;;;;5.80;3.00;;;;;;;17.99;62.19;100391.31;5061992;28;20070;-78
2023/07/18 02:16:53;;;;;;;4.53;2.37;;;;;;;18.21;61.92;100389.91;5062085;28;20119;-78
2023/07/18 02:19:18;;;;;;;7.80;3.43;;;;;;;18.09;62.08;100390.34;5061203;28;20272;-78
2023/07/18 02:21:44;;;;;;;7.70;3.67;;;;;;;18.03;62.17;100391.53;5061847;28;20675;-77
2023/07/18 02:24:10;;;;;;;6.97;2.07;;;;;;;17.96;62.59;100391.91;5061761;28;20480;-77
2023/07/18 02:26:36;;;;;;;5.10;2.42;;;;;;;17.87;62.83;100390.94;5061764;28;21202;-77
2023/07/18 02:29:01;;;;;;;7.00;2.42;;;;;;;17.85;62.99;100394.03;5061543;28;20089;-77
2023/07/18 02:31:26;;;;;;;5.00;1.92;;;;;;;17.92;62.66;100393.66;5061569;28;20094;-77
2023/07/18 02:33:52;;;;;;;4.15;2.38;;;;;;;17.79;62.89;100398.78;5062164;28;20040;-78
2023/07/18 02:36:17;;;;;;;7.97;2.57;;;;;;;17.74;63.13;100394.16;5061732;28;20081;-78
2023/07/18 02:38:43;;;;;;;8.77;3.20;;;;;;;17.62;63.68;100389.09;5061525;28;20257;-78
2023/07/18 02:41:09;;;;;;;4.57;2.60;;;;;;;17.64;63.71;100387.97;5061491;28;20036;-78
2023/07/18 02:43:34;;;;;;;6.05;2.90;;;;;;;17.64;63.79;100379.69;5062369;28;20062;-78
2023/07/18 02:46:00;;;;;;;5.30;2.40;;;;;;;17.65;64.18;100375.84;5061643;28;20044;-77
2023/07/18 02:48:25;;;;;;;8.13;2.83;;;;;;;17.71;63.61;100377.41;5061544;28;20114;-78
2023/07/18 02:50:50;;;;;;;6.87;2.77;;;;;;;17.85;62.90;100364.50;5061529;28;20714;-78
2023/07/18 02:53:16;;;;;;;6.45;3.00;;;;;;;17.81;63.14;100380.00;5061149;28;20319;-78
2023/07/18 02:55:41;;;;;;;6.65;3.08;;;;;;;17.76;63.37;100373.75;5061483;28;20127;-78
2023/07/18 02:58:07;;;;;;;4.40;1.90;;;;;;;17.65;63.70;100373.09;5061508;28;20547;-78
2023/07/18 03:00:33;;;;;;;6.50;2.57;;;;;;;17.68;63.58;100377.97;5061006;28;20032;-78
2023/07/18 03:02:59;;;;;;;5.43;2.38;;;;;;;17.85;62.99;100372.78;5061828;28;20296;-78
2023/07/18 03:05:24;;;;;;;5.13;2.25;;;;;;;17.74;63.19;100376.78;5061362;28;20242;-78
2023/07/18 03:07:50;;;;;;;6.50;2.17;;;;;;;17.64;63.71;100376.94;5061334;28;20063;-77
2023/07/18 03:10:16;;;;;;;6.78;3.03;;;;;;;17.59;63.85;100373.13;5060757;28;20530;-77
2023/07/18 03:12:41;;;;;;;4.68;1.92;;;;;;;17.73;63.29;100369.66;5061907;28;20093;-78
2023/07/18 03:15:09;;;;;;;8.95;2.78;;;;;;;17.76;62.88;100369.03;5061434;28;20040;-78
2023/07/18 03:17:35;;;;;;;4.65;1.95;;;;;;;17.61;63.56;100373.66;5061690;28;20098;-78
2023/07/18 03:20:01;;;;;;;5.80;2.78;;;;;;;17.57;63.88;100378.16;5060753;28;20607;-77
2023/07/18 03:22:26;;;;;;;6.97;2.47;;;;;;;17.59;63.76;100383.38;5061543;28;20041;-77
2023/07/18 03:24:54;;;;;;;6.60;2.47;;;;;;;17.64;63.00;100376.94;5061609;28;20066;-78
2023/07/18 03:27:20;;;;;;;5.10;2.33;;;;;;;17.33;64.01;100373.50;5061359;28;20269;-78
2023/07/18 03:29:45;;;;;;;5.30;2.37;;;;;;;17.47;63.75;100372.78;5061096;28;20024;-78
2023/07/18 03:32:10;;;;;;;3.43;1.90;;;;;;;17.52;63.06;100375.47;5061189;28;20281;-78
2023/07/18 03:34:36;;;;;;;11.83;2.57;;;;;;;17.56;63.04;100375.69;5061225;28;20271;-77
2023/07/18 03:37:01;;;;;;;7.15;2.92;;;;;;;17.32;62.95;100371.88;5061285;28;20262;-78
2023/07/18 03:39:26;;;;;;;4.13;2.20;;;;;;;17.40;63.26;100373.13;5061049;28;20094;-78
2023/07/18 03:41:51;;;;;;;5.63;1.80;;;;;;;17.57;62.81;100371.81;5061459;28;20268;-78
2023/07/18 03:44:17;;;;;;;4.30;1.95;;;;;;;17.53;62.68;100371.59;5061350;28;20954;-77
2023/07/18 03:46:42;;;;;;;9.98;1.73;;;;;;;17.47;63.00;100373.59;5061175;28;20675;-77
2023/07/18 03:49:07;;;;;;;5.63;2.00;;;;;;;17.74;62.61;100376.78;5060762;28;20047;-77
2023/07/18 03:51:33;;;;;;;5.53;1.63;;;;;;;17.58;61.89;100374.28;5061251;28;20042;-78
2023/07/18 03:53:58;;;;;;;3.58;1.65;;;;;;;17.65;62.30;100376.66;5061422;28;20372;-77
2023/07/18 03:56:23;;;;;;;4.10;1.77;;;;;;;17.84;61.98;100382.16;5060997;28;20032;-77
2023/07/18 03:58:50;;;;;;;3.97;1.63;;;;;;;17.93;61.67;100371.28;5060990;28;20538;-78
2023/07/18 04:01:15;;;;;;;6.07;2.88;;;;;;;17.83;61.78;100374.19;5061142;28;20273;-77
2023/07/18 04:03:41;;;;;;;4.65;1.73;;;;;;;17.79;61.65;100379.50;5063930;28;20028;-77
2023/07/18 04:06:06;;;;;;;4.82;1.77;;;;;;;17.76;61.91;100374.56;5064599;28;20047;-78
2023/07/18 04:08:31;;;;;;;4.72;2.00;;;;;;;17.77;61.87;100370.69;5064242;28;20032;-77
2023/07/18 04:10:58;;;;;;;5.70;2.15;;;;;;;17.83;61.81;100355.72;5065275;28;20040;-70
2023/07/18 04:13:24;;;;;;;8.88;2.28;;;;;;;17.85;61.74;100359.00;5064165;28;20615;-72
2023/07/18 04:15:49;;;;;;;9.75;2.20;;;;;;;18.04;60.99;100365.59;5064429;28;20119;-71
2023/07/18 04:18:14;;;;;;;7.17;2.70;;;;;;;17.83;61.62;100368.69;5063829;28;20035;-70
2023/07/18 04:20:41;;;;;;;7.50;2.95;;;;;;;17.84;61.43;100362.03;5062388;28;20434;-71
2023/07/18 04:23:06;;;;;;;6.73;2.03;;;;;;;17.82;61.74;100362.34;5064313;28;20498;-70
2023/07/18 04:25:35;;;;;;;4.70;2.40;;;;;;;17.72;62.39;100356.97;5064252;28;20330;-70
2023/07/18 04:28:01;;;;;;;6.22;2.47;;;;;;;17.58;63.11;100357.72;5064705;28;20326;-70
2023/07/18 04:30:26;;;;;;;6.43;2.38;;;;;;;17.60;62.61;100355.50;5063064;28;20044;-71
2023/07/18 04:32:51;;;;;;;11.90;2.85;;;;;;;17.47;62.75;100362.56;5064184;28;20047;-70
2023/07/18 04:35:16;;;;;;;5.07;2.00;;;;;;;17.30;63.12;100357.56;5063870;28;20551;-71
2023/07/18 04:37:43;;;;;;;5.43;2.10;;;;;;;17.36;62.96;100353.63;5064304;28;20260;-70
2023/07/18 04:40:08;;;;;;;7.63;2.28;;;;;;;17.40;62.94;100356.59;5063108;28;20036;-70
2023/07/18 04:42:34;;;;;;;7.57;2.67;;;;;;;17.14;62.77;100360.53;5063534;28;20305;-70
2023/07/18 04:44:59;;;;;;;7.43;2.17;;;;;;;17.25;63.03;100349.34;5064133;28;20043;-71
2023/07/18 04:47:25;;;;;;;5.90;2.30;;;;;;;17.33;62.93;100356.97;5063545;28;20470;-72
2023/07/18 04:49:50;;;;;;;5.28;1.85;;;;;;;17.35;62.78;100357.47;5063753;28;20123;-73
2023/07/18 04:52:15;;;;;;;6.80;1.70;;;;;;;17.39;62.77;100355.78;5064096;28;20052;-70
2023/07/18 04:54:41;;;;;;;6.18;3.15;;;;;;;17.47;62.63;100356.25;5063985;28;20754;-70
2023/07/18 04:57:06;;;;;;;3.78;1.50;;;;;;;17.47;62.48;100350.72;5063897;28;20040;-71
2023/07/18 04:59:31;;;;;;;4.40;1.60;;;;;;;17.66;62.22;100360.91;5063509;28;20086;-70
2023/07/18 05:01:57;;;;;;;7.47;2.33;;;;;;;17.52;62.16;100353.41;5063566;28;20482;-71
2023/07/18 05:04:22;;;;;;;6.53;3.17;;;;;;;17.64;62.44;100354.88;5063891;28;20257;-70
2023/07/18 05:06:50;;;;;;;4.47;2.05;;;;;;;17.73;62.31;100348.44;5063427;28;20261;-72
2023/07/18 05:09:17;;;;;;;4.30;2.17;;;;;;;17.77;61.71;100342.28;5063039;28;20397;-71
2023/07/18 05:11:42;;;;;;;6.30;2.15;;;;;;;17.83;61.92;100343.84;5063563;28;20040;-70
2023/07/18 05:14:07;;;;;;;4.82;1.83;;;;;;;17.89;61.68;100339.06;5062407;28;20467;-72
2023/07/18 05:16:33;;;;;;;5.60;1.60;;;;;;;17.70;61.72;100346.25;5063566;28;20220;-71
2023/07/18 05:18:58;;;;;;;5.45;2.20;;;;;;;17.70;61.82;100348.19;5063135;28;20273;-70
2023/07/18 05:21:23;;;;;;;6.15;2.03;;;;;;;17.70;62.22;100348.19;5063072;28;20029;-73
2023/07/18 05:23:48;;;;;;;5.80;2.40;;;;;;;17.76;61.89;100340.66;5063387;28;20110;-71
2023/07/18 05:26:14;;;;;;;5.23;2.60;;;;;;;17.74;61.77;100346.47;5062997;28;20284;-71
2023/07/18 05:28:39;;;;;;;8.83;2.63;;;;;;;17.92;61.97;100346.75;5062544;28;20297;-71
2023/07/18 05:31:08;;;;;;;6.03;2.03;;;;;;;17.93;61.75;100346.47;5062736;28;20289;-70
2023/07/18 05:33:34;;;;;;;4.25;2.05;;;;;;;17.95;61.66;100348.91;5062601;28;20171;-71
2023/07/18 05:35:59;;;;;;;5.95;2.45;;;;;;;18.02;61.71;100357.59;5062857;28;20036;-71
2023/07/18 05:38:25;;;;;;;23.75;2.45;;;;;;;17.97;61.57;100352.19;5062543;28;20050;-71
2023/07/18 05:40:50;;;;;;;11.60;2.72;;;;;;;17.85;61.99;100350.72;5062854;28;20460;-71
2023/07/18 05:43:17;;;;;;;6.88;2.08;;;;;;;17.90;61.99;100340.72;5062709;28;20074;-71
2023/07/18 05:45:43;;;;;;;7.93;2.08;;;;;;;17.97;61.89;100341.16;5062781;28;20028;-71
2023/07/18 05:48:08;;;;;;;4.80;1.80;;;;;;;17.96;62.03;100339.50;5062144;28;20037;-70
2023/07/18 05:50:33;;;;;;;4.17;1.83;;;;;;;17.99;62.20;100338.91;5061773;28;20265;-70
2023/07/18 05:52:59;;;;;;;7.28;2.83;;;;;;;18.11;61.91;100343.13;5062370;28;21698;-71
2023/07/18 05:55:24;;;;;;;5.75;2.08;;;;;;;18.15;61.77;100341.41;5062344;28;20025;-71
2023/07/18 05:57:49;;;;;;;7.67;2.10;;;;;;;18.20;61.59;100344.91;5062445;28;20529;-71
2023/07/18 06:00:15;;;;;;;5.60;2.53;;;;;;;18.30;61.53;100349.47;5061428;28;20285;-71
2023/07/18 06:02:40;;;;;;;9.75;2.50;;;;;;;18.29;61.57;100342.28;5062186;28;20266;-72
2023/07/18 06:05:06;;;;;;;3.95;1.85;;;;;;;18.15;61.54;100342.22;5061672;28;20028;-71
2023/07/18 06:07:32;;;;;;;7.47;2.40;;;;;;;18.30;61.83;100349.47;5061931;28;20036;-72
2023/07/18 06:09:57;;;;;;;5.27;1.70;;;;;;;18.36;61.85;100349.34;5062159;28;20047;-71
2023/07/18 06:12:23;;;;;;;12.05;2.60;;;;;;;18.36;62.00;100350.19;5061954;28;20356;-72
2023/07/18 06:14:49;;;;;;;6.47;2.38;;;;;;;18.16;62.66;100354.91;5062271;28;20040;-71
2023/07/18 06:17:14;;;;;;;5.70;1.73;;;;;;;18.13;62.88;100354.69;5061853;28;20081;-70
2023/07/18 06:19:39;;;;;;;5.03;1.83;;;;;;;18.23;62.93;100353.72;5061945;28;20036;-71
2023/07/18 06:22:05;;;;;;;7.15;3.00;;;;;;;18.06;63.11;100364.16;5061875;28;20957;-71
2023/07/18 06:24:31;;;;;;;6.50;2.28;;;;;;;18.10;63.07;100364.41;5061811;28;20032;-71
2023/07/18 06:26:56;;;;;;;4.50;1.65;;;;;;;18.25;63.14;100359.75;5061702;28;20119;-71
2023/07/18 06:29:22;;;;;;;7.47;2.65;;;;;;;18.13;63.17;100363.78;5061251;28;20541;-71
2023/07/18 06:31:48;;;;;;;7.20;2.53;;;;;;;18.14;63.15;100361.84;5061875;28;20444;-71
2023/07/18 06:34:14;;;;;;;6.00;2.30;;;;;;;18.17;62.65;100364.84;5061558;28;20436;-71
2023/07/18 06:36:40;;;;;;;5.00;1.67;;;;;;;18.30;62.67;100363.25;5062011;28;20040;-71
2023/07/18 06:39:05;;;;;;;5.30;1.70;;;;;;;18.22;62.19;100365.88;5060824;28;20035;-71
2023/07/18 06:41:32;;;;;;;6.95;2.38;;;;;;;18.20;62.34;100360.69;5061826;28;20697;-78
2023/07/18 06:43:58;;;;;;;7.72;2.40;;;;;;;18.26;62.90;100365.00;5061822;28;20359;-77
2023/07/18 06:46:23;;;;;;;4.80;2.33;;;;;;;18.21;63.18;100356.78;5061536;28;20028;-78
2023/07/18 06:48:48;;;;;;;23.13;2.95;;;;;;;18.30;62.89;100351.41;5061586;28;20090;-77
2023/07/18 06:51:14;;;;;;;4.90;2.03;;;;;;;18.37;62.57;100346.28;5060079;28;20046;-78
2023/07/18 06:53:39;;;;;;;8.18;2.63;;;;;;;18.39;62.14;100354.25;5061964;28;20758;-77
2023/07/18 06:56:05;;;;;;;4.57;1.52;;;;;;;18.36;62.13;100343.84;5061911;28;20036;-77
2023/07/18 06:58:30;;;;;;;4.18;1.45;;;;;;;18.40;62.13;100337.41;5061027;28;20044;-77
2023/07/18 07:00:55;;;;;;;5.30;2.53;;;;;;;18.33;61.64;100355.50;5061481;28;20120;-78
2023/07/18 07:03:21;;;;;;;4.17;1.93;;;;;;;18.39;61.86;100340.47;5061855;28;20732;-77
2023/07/18 07:05:47;;;;;;;3.37;1.67;;;;;;;18.54;61.97;100340.19;5061993;28;20257;-78
2023/07/18 07:08:12;;;;;;;7.90;2.00;;;;;;;18.60;61.63;100334.56;5061835;28;20871;-77
2023/07/18 07:10:40;;;;;;;2.88;1.35;;;;;;;18.76;61.27;100338.66;5061138;28;20036;-77
2023/07/18 07:13:06;;;;;;;12.15;2.03;;;;;;;18.75;61.03;100337.03;5061767;28;20378;-77
2023/07/18 07:15:35;;;;;;;10.40;2.45;;;;;;;18.86;60.48;100334.06;5061606;28;20248;-78
2023/07/18 07:18:02;;;;;;;3.85;1.77;;;;;;;18.78;60.30;100330.91;5061138;28;20123;-78
2023/07/18 07:20:28;;;;;;;4.15;1.55;;;;;;;18.73;60.29;100327.44;5060586;28;20032;-78
2023/07/18 07:22:54;;;;;;;4.88;1.48;;;;;;;18.76;60.47;100327.63;5061138;28;20032;-78
2023/07/18 07:25:20;;;;;;;4.45;1.80;;;;;;;18.82;60.20;100335.78;5060764;28;20086;-78
2023/07/18 07:27:46;;;;;;;3.45;1.67;;;;;;;18.96;59.68;100335.78;5061183;28;20045;-77
2023/07/18 07:30:16;;;;;;;3.90;1.27;;;;;;;19.07;59.72;100320.66;5060539;28;20587;-77
2023/07/18 07:32:45;;;;;;;4.07;1.60;;;;;;;19.18;59.37;100326.78;5061217;28;20135;-78
2023/07/18 07:35:11;;;;;;;4.82;1.20;;;;;;;19.13;58.88;100329.66;5060874;28;20025;-76
2023/07/18 07:37:40;;;;;;;3.60;1.52;;;;;;;19.10;58.65;100324.75;5061994;28;20040;-78
2023/07/18 07:40:11;;;;;;;2.35;1.13;;;;;;;19.14;58.27;100320.25;5064529;28;20041;-77
2023/07/18 07:42:37;;;;;;;6.65;1.75;;;;;;;19.31;58.44;100318.78;5065115;28;20037;-76
2023/07/18 07:45:03;;;;;;;4.40;1.58;;;;;;;19.25;58.18;100321.69;5065344;28;20364;-78
2023/07/18 07:47:28;;;;;;;5.05;1.58;;;;;;;19.23;58.10;100323.94;5064576;28;20047;-77
2023/07/18 07:49:53;;;;;;;5.70;1.50;;;;;;;19.38;58.30;100323.91;5064448;28;20040;-78
2023/07/18 07:52:19;;;;;;;3.93;1.70;;;;;;;19.48;58.28;100318.13;5064881;28;20062;-70
2023/07/18 07:54:44;;;;;;;12.27;2.50;;;;;;;19.57;57.84;100324.53;5064810;28;20258;-70
2023/07/18 07:57:10;;;;;;;4.32;1.20;;;;;;;19.69;57.51;100323.16;5064532;28;20277;-70
2023/07/18 07:59:35;;;;;;;3.78;1.52;;;;;;;19.75;57.45;100313.63;5064075;28;20655;-70
2023/07/18 08:02:01;;;;;;;5.90;1.83;;;;;;;19.77;57.24;100318.84;5064340;28;20036;-71
2023/07/18 08:04:26;;;;;;;2.63;1.20;;;;;;;19.75;57.22;100312.81;5064055;28;20037;-70
2023/07/18 08:06:55;;;;;;;5.13;2.03;;;;;;;19.85;56.72;100315.34;5064753;28;20553;-71
2023/07/18 08:09:21;;;;;;;3.63;0.95;;;;;;;19.78;56.38;100314.94;5063739;28;20338;-71
2023/07/18 08:11:47;;;;;;;3.33;1.10;;;;;;;19.89;55.77;100313.56;5064629;28;20033;-71
2023/07/18 08:14:12;;;;;;;3.70;1.43;;;;;;;19.82;53.93;100305.72;5064232;28;20663;-71
2023/07/18 08:16:37;;;;;;;2.80;1.00;;;;;;;19.78;52.80;100298.34;5064698;28;20318;-71
2023/07/18 08:19:03;;;;;;;2.35;0.73;;;;;;;19.74;52.07;100291.81;5063752;28;20695;-71
2023/07/18 08:28:12;;;;;;;3.58;1.92;;;;;;;19.86;50.43;100296.78;5055701;28;20055;-71
2023/07/18 08:30:40;;;;;;;3.97;1.53;;;;;;;19.93;50.53;100289.66;5064130;28;20409;-71
2023/07/18 08:33:08;;;;;;;3.63;1.15;;;;;;;19.99;50.92;100287.59;5064382;28;20836;-72
2023/07/18 08:35:33;;;;;;;3.20;1.73;;;;;;;20.09;50.31;100291.25;5063924;28;20167;-71
2023/07/18 08:37:58;;;;;;;3.20;0.97;;;;;;;20.20;50.21;100291.81;5064281;28;20218;-71
2023/07/18 08:40:24;;;;;;;5.50;0.90;;;;;;;20.26;49.92;100296.03;5063399;28;20296;-73
2023/07/18 08:42:50;;;;;;;2.90;0.60;;;;;;;20.26;49.63;100301.59;5064185;28;20257;-71
2023/07/18 08:45:16;;;;;;;5.38;1.13;;;;;;;20.35;49.72;100282.25;5064417;28;20040;-72
2023/07/18 08:47:43;;;;;;;1.13;0.70;;;;;;;20.39;49.17;100280.50;5064135;28;20082;-71
2023/07/18 08:50:18;;;;;;;2.58;0.90;;;;;;;20.33;48.44;100273.47;5063410;28;20128;-71
2023/07/18 08:52:44;;;;;;;2.80;0.90;;;;;;;20.47;49.38;100278.88;5064195;28;20069;-72
2023/07/18 08:55:09;;;;;;;4.90;2.20;;;;;;;20.58;49.03;100277.47;5063880;28;20040;-71
2023/07/18 08:57:35;;;;;;;2.60;0.83;;;;;;;20.75;48.81;100284.19;5064007;28;20043;-71
2023/07/18 09:00:04;;;;;;;5.53;1.80;;;;;;;20.88;48.67;100268.59;5063531;28;20628;-71
2023/07/18 09:02:29;;;;;;;3.85;1.25;;;;;;;20.98;49.15;100276.63;5064033;28;20086;-71
2023/07/18 09:04:55;;;;;;;1.90;0.63;;;;;;;21.06;49.17;100263.09;5063907;28;20028;-71
2023/07/18 09:07:22;;;;;;;2.47;1.20;;;;;;;21.22;49.15;100269.78;5062479;28;20040;-72
2023/07/18 09:09:47;;;;;;;1.88;0.63;;;;;;;21.37;48.60;100269.63;5063618;28;20481;-71
2023/07/18 09:12:13;;;;;;;7.65;1.02;;;;;;;21.34;48.14;100260.81;5063184;28;20029;-71
2023/07/18 09:14:39;;;;;;;3.75;0.60;;;;;;;21.29;47.72;100266.56;5063714;28;20048;-71
2023/07/18 09:17:07;;;;;;;6.57;1.17;;;;;;;21.30;47.97;100259.03;5063862;28;20548;-71
2023/07/18 09:19:41;;;;;;;1.92;0.70;;;;;;;21.34;48.07;100255.28;5063226;28;20036;-71
2023/07/18 09:22:09;;;;;;;1.80;0.88;;;;;;;21.54;47.62;100258.53;5063524;28;20047;-71
2023/07/18 09:24:37;;;;;;;2.55;1.05;;;;;;;21.69;47.24;100253.63;5063407;28;20251;-71
2023/07/18 09:27:07;;;;;;;4.55;1.38;;;;;;;21.74;46.33;100249.88;5063324;28;20082;-71
2023/07/18 09:29:33;;;;;;;5.85;0.90;;;;;;;21.86;45.14;100246.44;5062828;28;20504;-71
2023/07/18 09:31:58;;;;;;;4.50;1.38;;;;;;;21.93;44.30;100242.00;5063043;28;20049;-72
2023/07/18 09:34:25;;;;;;;5.30;1.42;;;;;;;21.96;44.93;100240.53;5063460;28;20033;-72
2023/07/18 09:36:57;;;;;;;6.45;0.75;;;;;;;21.96;44.13;100234.16;5063281;28;20048;-72
2023/07/18 09:39:23;;;;;;;3.05;1.33;;;;;;;21.83;43.80;100233.22;5062305;28;20051;-71
2023/07/18 09:41:49;;;;;;;2.92;0.90;;;;;;;21.99;43.69;100234.31;5063112;28;20104;-71
2023/07/18 09:44:16;;;;;;;4.78;0.80;;;;;;;21.95;43.97;100238.91;5062512;28;20078;-72
2023/07/18 09:46:42;;;;;;;2.90;1.23;;;;;;;22.15;43.97;100237.34;5062921;28;20046;-72
2023/07/18 09:49:08;;;;;;;6.72;0.88;;;;;;;22.38;44.35;100227.94;5062277;28;20028;-71
2023/07/18 09:51:34;;;;;;;5.78;1.40;;;;;;;22.31;44.41;100233.22;5062375;28;20044;-72
2023/07/18 09:54:03;;;;;;;8.75;1.38;;;;;;;22.31;44.69;100236.00;5062551;28;20037;-71
2023/07/18 09:56:30;;;;;;;2.05;1.58;;;;;;;22.32;44.29;100232.88;5062911;28;20032;-73
2023/07/18 09:58:57;;;;;;;1.90;0.70;;;;;;;22.48;43.55;100226.75;5060805;28;20032;-72
2023/07/18 10:01:24;;;;;;;3.60;0.90;;;;;;;22.66;43.25;100233.06;5061714;28;20083;-71
2023/07/18 10:03:52;;;;;;;2.53;0.90;;;;;;;22.60;42.43;100237.16;5062891;28;20032;-72
2023/07/18 10:06:17;;;;;;;3.20;1.20;;;;;;;22.68;41.98;100241.88;5062562;28;20056;-72
2023/07/18 10:08:44;;;;;;;3.42;1.25;;;;;;;22.82;41.95;100236.06;5062002;28;20494;-72
2023/07/18 10:11:11;;;;;;;2.50;0.70;;;;;;;22.86;41.78;100228.69;5062025;28;20123;-72
2023/07/18 10:13:54;;;;;;;2.55;0.98;;;;;;;22.71;40.78;100241.22;5062685;28;20379;-72
2023/07/18 10:16:21;;;;;;;2.85;0.98;;;;;;;22.72;42.13;100239.25;5062008;28;20036;-72
2023/07/18 10:18:51;;;;;;;2.50;0.93;;;;;;;22.77;42.68;100235.44;5061391;28;20051;-72
2023/07/18 10:21:34;;;;;;;5.18;0.77;;;;;;;22.99;42.95;100228.75;5061954;28;20041;-72
2023/07/18 10:24:24;;;;;;;4.40;1.50;;;;;;;22.94;43.30;100221.41;5061996;28;20237;-72
2023/07/18 10:26:55;;;;;;;5.00;1.15;;;;;;;22.96;42.12;100223.88;5062279;28;20037;-72
2023/07/18 10:29:21;;;;;;;2.67;0.82;;;;;;;23.06;41.70;100233.78;5057767;28;20036;-71
2023/07/18 10:31:46;;;;;;;2.35;1.00;;;;;;;22.96;40.61;100221.91;5061133;28;20520;-71
2023/07/18 10:34:15;;;;;;;2.60;1.08;;;;;;;23.08;41.73;100217.56;5061488;28;20037;-72
2023/07/18 10:36:54;;;;;;;3.58;1.17;;;;;;;23.27;41.15;100227.41;5062268;28;20232;-72
2023/07/18 10:39:38;;;;;;;4.63;1.23;;;;;;;23.25;41.35;100224.94;5061524;28;20040;-72
2023/07/18 10:42:26;;;;;;;2.42;1.05;;;;;;;23.28;41.34;100223.47;5061855;28;20040;-72
2023/07/18 10:45:00;;;;;;;4.90;0.90;;;;;;;23.19;41.82;100204.88;5062293;28;20038;-71
2023/07/18 10:47:27;;;;;;;4.30;1.13;;;;;;;23.20;41.59;100212.09;5062100;28;20584;-73
2023/07/18 10:49:52;;;;;;;4.50;1.60;;;;;;;23.17;41.63;100201.63;5061180;28;20140;-72
2023/07/18 10:52:19;;;;;;;4.80;1.55;;;;;;;23.36;41.75;100191.97;5061205;28;20127;-72
2023/07/18 10:54:58;;;;;;;5.15;1.55;;;;;;;23.52;41.77;100194.97;5062340;28;20048;-71
2023/07/18 10:57:32;;;;;;;6.30;1.48;;;;;;;23.64;42.19;100183.03;5061590;28;20028;-71
2023/07/18 10:59:59;;;;;;;2.08;0.98;;;;;;;23.64;42.16;100180.25;5061160;28;20401;-72
2023/07/18 11:02:26;;;;;;;1.90;0.88;;;;;;;23.50;41.75;100175.00;5061660;28;20368;-71
2023/07/18 11:04:52;;;;;;;8.57;2.05;;;;;;;23.53;41.62;100176.31;5061794;28;20044;-72
2023/07/18 11:07:17;;;;;;;3.13;1.15;;;;;;;23.88;42.04;100161.97;5061393;28;20028;-72
2023/07/18 11:09:43;;;;;;;4.57;1.35;;;;;;;23.80;41.71;100165.66;5061169;28;20047;-73
2023/07/18 11:12:18;;;;;;;4.80;1.10;;;;;;;23.77;41.41;100163.59;5061794;28;20425;-72
2023/07/18 11:14:45;;;;;;;12.15;1.88;;;;;;;23.56;41.33;100170.03;5065970;28;20082;-72
2023/07/18 11:17:17;;;;;;;9.15;1.60;;;;;;;23.50;41.43;100157.50;5065586;28;20086;-72
2023/07/18 11:19:42;;;;;;;4.20;1.67;;;;;;;23.20;42.05;100167.59;5065543;28;20060;-71
2023/07/18 11:22:10;;;;;;;4.88;1.52;;;;;;;23.14;41.30;100157.00;5065649;28;20490;-71
2023/07/18 11:24:36;;;;;;;3.63;1.10;;;;;;;23.21;42.01;100148.91;5065651;28;20543;-71
2023/07/18 11:27:19;;;;;;;5.13;2.05;;;;;;;23.34;41.68;100147.00;5065604;28;20044;-71